Time;durP1;ratioP1;P1;durP2;ratioP2;P2;SDS_P1;SDS_P2;PMS_P1;PMS_P2;Temp;Humidity;BMP_temperature;BMP_pressure;BME280_temperature;BME280_humidity;BME280_pressure;Samples;Min_cycle;Max_cycle;Signal;HPM_P1;HPM_P2
2023/04/29 00:00:47;;;;;;;23.63;12.63;;;;;;;14.69;58.53;100860.41;4992689;28;20138;-44
2023/04/29 00:03:12;;;;;;;23.85;12.82;;;;;;;14.69;58.54;100861.25;5009597;28;20050;-43
2023/04/29 00:05:38;;;;;;;22.40;11.00;;;;;;;14.70;58.68;100856.81;5006182;28;20494;-43
2023/04/29 00:08:04;;;;;;;14.52;10.65;;;;;;;14.70;58.71;100862.94;5000390;28;20026;-43
2023/04/29 00:10:29;;;;;;;17.70;10.13;;;;;;;14.68;58.57;100861.38;5010300;28;20518;-45
2023/04/29 00:12:55;;;;;;;17.98;10.98;;;;;;;14.65;58.50;100851.84;5019194;28;20035;-42
2023/04/29 00:15:20;;;;;;;16.50;9.77;;;;;;;14.68;58.61;100850.78;5017623;28;20070;-45
2023/04/29 00:17:46;;;;;;;16.90;10.35;;;;;;;14.67;58.63;100846.41;5015346;28;20051;-44
2023/04/29 00:20:11;;;;;;;17.77;10.43;;;;;;;14.70;58.69;100841.75;5008871;28;20047;-43
2023/04/29 00:22:37;;;;;;;21.13;11.00;;;;;;;14.72;58.62;100839.00;5017305;28;20714;-43
2023/04/29 00:25:04;;;;;;;15.63;10.05;;;;;;;14.73;58.51;100830.94;5016580;28;20029;-43
2023/04/29 00:27:29;;;;;;;29.85;11.27;;;;;;;14.74;58.66;100837.09;5008713;28;20577;-44
2023/04/29 00:29:55;;;;;;;17.45;11.25;;;;;;;14.74;58.49;100837.94;5015682;28;20048;-43
2023/04/29 00:32:21;;;;;;;19.10;10.98;;;;;;;14.74;58.58;100823.84;5012832;28;20548;-43
2023/04/29 00:34:47;;;;;;;19.27;11.50;;;;;;;14.72;58.55;100823.13;5001795;28;20049;-46
2023/04/29 00:37:12;;;;;;;22.35;10.57;;;;;;;14.69;58.65;100824.16;5001751;28;20053;-43
2023/04/29 00:39:38;;;;;;;21.65;11.00;;;;;;;14.67;58.89;100815.47;5012494;28;20037;-43
2023/04/29 00:42:03;;;;;;;22.45;12.43;;;;;;;14.68;59.08;100811.88;5009352;28;20049;-43
2023/04/29 00:44:29;;;;;;;19.38;11.38;;;;;;;14.68;59.31;100803.94;5011562;28;20061;-43
2023/04/29 00:46:54;;;;;;;22.10;11.43;;;;;;;14.68;59.41;100805.75;5012634;28;20142;-45
2023/04/29 00:49:20;;;;;;;21.05;12.55;;;;;;;14.62;59.54;100802.56;5019334;28;20076;-44
2023/04/29 00:51:46;;;;;;;21.17;12.43;;;;;;;14.61;59.64;100798.22;5008437;28;21033;-43
2023/04/29 00:54:12;;;;;;;25.63;12.90;;;;;;;14.58;59.96;100809.06;5023746;28;20100;-43
2023/04/29 00:56:40;;;;;;;19.10;13.30;;;;;;;14.57;59.94;100804.72;5014983;28;20136;-44
2023/04/29 00:59:08;;;;;;;21.75;12.50;;;;;;;14.54;60.08;100806.72;5014507;28;20083;-43
2023/04/29 01:01:34;;;;;;;19.13;12.38;;;;;;;14.51;60.28;100804.34;5009933;28;21320;-43
2023/04/29 01:04:00;;;;;;;23.17;12.52;;;;;;;14.50;60.37;100803.47;5013896;28;20128;-43
2023/04/29 01:06:38;;;;;;;22.77;12.27;;;;;;;14.51;60.84;100799.88;4992866;28;21838;-44
2023/04/29 01:09:28;;;;;;;18.80;11.45;;;;;;;14.50;60.81;100807.94;5006498;28;20048;-43
2023/04/29 01:11:56;;;;;;;28.75;12.18;;;;;;;14.46;60.75;100802.00;5008312;28;20488;-42
2023/04/29 01:14:24;;;;;;;22.17;12.40;;;;;;;14.43;60.86;100807.53;5010912;28;20132;-44
2023/04/29 01:16:59;;;;;;;20.63;13.02;;;;;;;14.46;60.84;100805.50;5015196;28;20313;-43
2023/04/29 01:19:47;;;;;;;24.15;12.40;;;;;;;14.47;60.63;100803.69;4998958;28;20047;-42
2023/04/29 01:22:13;;;;;;;16.75;11.35;;;;;;;14.44;60.59;100802.13;5011427;28;20048;-43
2023/04/29 01:24:39;;;;;;;19.00;12.07;;;;;;;14.42;60.79;100795.25;5019132;28;20058;-44
2023/04/29 01:27:22;;;;;;;20.65;11.63;;;;;;;14.41;61.10;100798.88;4994375;28;20076;-43
2023/04/29 01:30:09;;;;;;;20.92;11.20;;;;;;;14.41;61.20;100791.75;4995397;28;20045;-43
2023/04/29 01:32:53;;;;;;;19.85;11.57;;;;;;;14.42;61.31;100800.56;5011108;28;20064;-43
2023/04/29 01:35:43;;;;;;;21.85;12.85;;;;;;;14.41;61.24;100793.56;5016352;28;20051;-43
2023/04/29 01:38:33;;;;;;;21.05;11.68;;;;;;;14.41;61.13;100793.56;5017420;28;20043;-44
2023/04/29 01:41:12;;;;;;;20.40;12.73;;;;;;;14.41;61.15;100793.56;5020847;28;20033;-43
2023/04/29 01:43:38;;;;;;;20.30;13.98;;;;;;;14.40;61.00;100797.19;5017693;28;20521;-43
2023/04/29 01:46:08;;;;;;;26.55;11.57;;;;;;;14.40;61.11;100798.00;5018089;28;20614;-44
2023/04/29 01:48:35;;;;;;;22.70;13.45;;;;;;;14.38;61.02;100796.44;5019274;28;20118;-43
2023/04/29 01:51:01;;;;;;;21.13;12.30;;;;;;;14.37;61.16;100792.94;5026910;28;20042;-44
2023/04/29 01:53:26;;;;;;;20.67;12.02;;;;;;;14.35;61.39;100796.66;5011420;28;20057;-42
2023/04/29 01:55:52;;;;;;;19.08;12.90;;;;;;;14.32;61.30;100785.34;5014540;28;20078;-43
2023/04/29 01:58:17;;;;;;;23.20;14.02;;;;;;;14.30;61.20;100789.88;5019929;28;20057;-43
2023/04/29 02:00:43;;;;;;;17.75;12.32;;;;;;;14.31;61.06;100794.22;5008149;28;20121;-42
2023/04/29 02:03:08;;;;;;;21.58;12.20;;;;;;;14.32;61.10;100789.78;5014680;28;20491;-43
2023/04/29 02:05:34;;;;;;;20.08;12.63;;;;;;;14.33;60.99;100788.84;5014316;28;20412;-45
2023/04/29 02:08:00;;;;;;;27.20;14.45;;;;;;;14.36;61.00;100790.41;5010439;28;20052;-43
2023/04/29 02:10:26;;;;;;;24.13;15.25;;;;;;;14.35;60.89;100784.28;5012953;28;20033;-45
2023/04/29 02:12:53;;;;;;;19.42;11.95;;;;;;;14.37;60.83;100781.50;5014259;28;21014;-43
2023/04/29 02:15:19;;;;;;;23.48;12.70;;;;;;;14.33;61.03;100776.44;5015707;28;20073;-43
2023/04/29 02:17:45;;;;;;;25.27;12.73;;;;;;;14.33;61.10;100771.13;5021187;28;20060;-44
2023/04/29 02:20:11;;;;;;;21.58;13.98;;;;;;;14.33;61.23;100768.50;5019227;28;20399;-44
2023/04/29 02:22:36;;;;;;;26.10;13.88;;;;;;;14.27;61.39;100776.91;5021368;28;20052;-42
2023/04/29 02:25:02;;;;;;;26.33;13.88;;;;;;;14.25;61.38;100773.53;5023937;28;20065;-45
2023/04/29 02:27:28;;;;;;;25.52;13.40;;;;;;;14.25;61.57;100773.53;5019951;28;20062;-43
2023/04/29 02:29:53;;;;;;;21.83;13.05;;;;;;;14.24;61.43;100761.25;5001602;28;20062;-44
2023/04/29 02:32:19;;;;;;;24.10;14.50;;;;;;;14.23;61.58;100754.25;5014106;28;20418;-44
2023/04/29 02:34:45;;;;;;;21.77;13.82;;;;;;;14.24;61.46;100753.31;5014565;28;20109;-43
2023/04/29 02:37:10;;;;;;;23.88;14.27;;;;;;;14.24;61.56;100755.94;5021509;28;20131;-43
2023/04/29 02:39:36;;;;;;;24.70;13.43;;;;;;;14.24;61.38;100760.38;5012796;28;20046;-44
2023/04/29 02:42:01;;;;;;;23.25;12.82;;;;;;;14.24;61.49;100752.44;5011770;28;20131;-45
2023/04/29 02:44:27;;;;;;;48.72;28.35;;;;;;;14.22;61.47;100747.28;5015612;28;20072;-44
2023/04/29 02:46:53;;;;;;;38.63;19.58;;;;;;;14.23;61.47;100748.97;5018607;28;20044;-43
2023/04/29 02:49:18;;;;;;;26.15;14.60;;;;;;;14.20;61.45;100758.94;5013759;28;20460;-44
2023/04/29 02:51:44;;;;;;;23.80;15.90;;;;;;;14.18;61.62;100759.03;5013898;28;20055;-43
2023/04/29 02:54:10;;;;;;;21.38;13.13;;;;;;;14.16;61.43;100755.66;5018886;28;20049;-43
2023/04/29 02:56:36;;;;;;;21.38;13.70;;;;;;;14.15;61.62;100756.59;5006059;28;20629;-43
2023/04/29 02:59:02;;;;;;;26.33;13.70;;;;;;;14.15;61.61;100753.94;5015919;28;20054;-43
2023/04/29 03:01:27;;;;;;;21.48;13.88;;;;;;;14.16;61.32;100756.50;5024052;28;20043;-43
2023/04/29 03:03:53;;;;;;;20.48;13.25;;;;;;;14.17;61.49;100754.69;5019675;28;20093;-43
2023/04/29 03:06:19;;;;;;;20.10;14.13;;;;;;;14.17;61.56;100750.25;5019161;28;20056;-43
2023/04/29 03:08:45;;;;;;;25.65;15.02;;;;;;;14.17;61.44;100752.91;5012581;28;20113;-43
2023/04/29 03:11:10;;;;;;;18.77;13.60;;;;;;;14.18;61.47;100745.78;5018444;28;20886;-44
2023/04/29 03:13:37;;;;;;;27.92;14.52;;;;;;;14.18;61.37;100741.38;5005896;28;20056;-43
2023/04/29 03:16:02;;;;;;;24.67;14.38;;;;;;;14.19;61.31;100747.50;5011917;28;20062;-43
2023/04/29 03:18:28;;;;;;;17.90;9.68;;;;;;;14.18;61.35;100746.66;5020138;28;20045;-44
2023/04/29 03:20:53;;;;;;;21.15;12.75;;;;;;;14.18;61.51;100741.38;5008835;28;20061;-43
2023/04/29 03:23:19;;;;;;;22.25;13.93;;;;;;;14.18;61.26;100737.84;5015965;28;20052;-44
2023/04/29 03:25:44;;;;;;;30.58;17.40;;;;;;;14.17;61.49;100741.47;5013309;28;20548;-44
2023/04/29 03:28:09;;;;;;;26.95;14.85;;;;;;;14.18;61.39;100736.06;5017501;28;20522;-44
2023/04/29 03:30:35;;;;;;;21.02;14.10;;;;;;;14.18;61.41;100733.44;5006232;28;20101;-44
2023/04/29 03:33:01;;;;;;;25.98;14.25;;;;;;;14.18;61.57;100738.72;5017678;28;20176;-43
2023/04/29 03:35:26;;;;;;;24.33;15.05;;;;;;;14.18;61.42;100740.50;5008895;28;20091;-44
2023/04/29 03:37:52;;;;;;;17.95;12.90;;;;;;;14.18;61.59;100740.50;5018950;28;20108;-44
2023/04/29 03:40:18;;;;;;;20.77;14.10;;;;;;;14.20;61.58;100740.41;5015716;28;20056;-44
2023/04/29 03:42:43;;;;;;;24.05;14.38;;;;;;;14.18;61.57;100740.50;5011953;28;20045;-43
2023/04/29 03:45:11;;;;;;;24.30;13.95;;;;;;;14.19;61.55;100736.91;5016307;28;20544;-43
2023/04/29 03:47:37;;;;;;;23.45;13.70;;;;;;;14.18;61.77;100738.72;5019175;28;20537;-43
2023/04/29 03:50:03;;;;;;;26.25;13.90;;;;;;;14.17;61.97;100741.47;5011451;28;20066;-44
2023/04/29 03:52:28;;;;;;;19.70;13.80;;;;;;;14.17;61.97;100738.81;5002913;28;20044;-43
2023/04/29 03:54:54;;;;;;;28.73;14.15;;;;;;;14.11;62.26;100740.09;5014334;28;20073;-43
2023/04/29 03:57:19;;;;;;;26.23;14.48;;;;;;;14.11;62.35;100737.47;5009942;28;20047;-43
2023/04/29 03:59:48;;;;;;;21.45;13.60;;;;;;;14.11;62.35;100740.09;5014063;28;20048;-43
2023/04/29 04:02:15;;;;;;;25.60;14.82;;;;;;;14.12;62.25;100733.03;4999948;28;20071;-44
2023/04/29 04:04:41;;;;;;;23.27;14.43;;;;;;;14.11;62.32;100736.63;5015778;28;20077;-43
2023/04/29 04:07:06;;;;;;;27.17;14.75;;;;;;;14.13;62.23;100747.97;5004108;28;20068;-44
2023/04/29 04:09:32;;;;;;;23.63;14.60;;;;;;;14.13;62.15;100738.19;5011666;28;20159;-44
2023/04/29 04:11:59;;;;;;;22.67;14.27;;;;;;;14.16;62.22;100747.72;5014616;28;20045;-44
2023/04/29 04:14:24;;;;;;;22.38;14.05;;;;;;;14.15;62.36;100740.72;4994621;28;20061;-43
2023/04/29 04:16:50;;;;;;;29.73;14.48;;;;;;;14.13;62.34;100747.97;5007522;28;20059;-44
2023/04/29 04:19:16;;;;;;;15.57;9.32;;;;;;;14.14;62.51;100754.94;5006751;28;20059;-44
2023/04/29 04:21:41;;;;;;;29.95;13.68;;;;;;;14.16;62.13;100748.56;5016332;28;20083;-44
2023/04/29 04:24:07;;;;;;;25.25;14.68;;;;;;;14.18;62.05;100751.94;5016013;28;20118;-43
2023/04/29 04:26:33;;;;;;;23.17;14.45;;;;;;;14.18;62.16;100751.09;5009541;28;20470;-43
2023/04/29 04:28:58;;;;;;;31.33;16.67;;;;;;;14.16;62.34;100747.72;5014570;28;20093;-44
2023/04/29 04:31:24;;;;;;;26.38;15.68;;;;;;;14.17;62.16;100752.03;5019007;28;20056;-44
2023/04/29 04:33:50;;;;;;;26.75;15.63;;;;;;;14.16;62.31;100753.84;5011943;28;20106;-44
2023/04/29 04:36:15;;;;;;;22.95;13.90;;;;;;;14.15;62.33;100746.88;5012555;28;20049;-44
2023/04/29 04:38:40;;;;;;;21.55;12.65;;;;;;;14.16;62.40;100748.56;5009826;28;20088;-44
2023/04/29 04:41:09;;;;;;;23.77;14.07;;;;;;;14.15;62.62;100746.88;5019180;28;20033;-45
2023/04/29 04:43:35;;;;;;;25.23;15.15;;;;;;;14.11;62.62;100750.69;5006400;28;20413;-44
2023/04/29 04:46:09;;;;;;;25.13;14.55;;;;;;;14.13;62.84;100758.53;5021863;28;20529;-44
2023/04/29 04:48:34;;;;;;;27.35;15.63;;;;;;;14.08;62.78;100761.50;5019869;28;20063;-43
2023/04/29 04:51:09;;;;;;;25.67;15.63;;;;;;;14.07;62.79;100758.97;5013476;28;20429;-44
2023/04/29 04:53:35;;;;;;;15.10;10.07;;;;;;;13.96;62.95;100760.59;5015591;28;20059;-44
2023/04/29 04:56:01;;;;;;;25.10;15.23;;;;;;;13.94;63.00;100757.22;5015746;28;20148;-43
2023/04/29 04:58:27;;;;;;;29.90;15.88;;;;;;;13.90;63.03;100763.66;5016582;28;20046;-44
2023/04/29 05:00:52;;;;;;;25.85;15.60;;;;;;;13.83;62.97;100757.16;5022526;28;20052;-44
2023/04/29 05:03:18;;;;;;;29.63;16.20;;;;;;;13.82;63.00;100763.38;4985566;28;20151;-45
2023/04/29 05:05:43;;;;;;;30.73;17.77;;;;;;;13.82;63.30;100766.88;5013500;28;20096;-43
2023/04/29 05:08:09;;;;;;;31.92;16.05;;;;;;;13.82;63.25;100760.75;5014396;28;20093;-45
2023/04/29 05:10:37;;;;;;;27.88;16.35;;;;;;;13.80;63.37;100763.47;5015217;28;20068;-43
2023/04/29 05:13:02;;;;;;;32.53;15.65;;;;;;;13.74;63.41;100765.72;5018196;28;20814;-43
2023/04/29 05:15:28;;;;;;;23.42;15.23;;;;;;;13.70;63.45;100768.56;5011065;28;20544;-44
2023/04/29 05:17:53;;;;;;;24.27;14.65;;;;;;;13.64;63.32;100771.66;5015816;28;20032;-43
2023/04/29 05:20:20;;;;;;;25.23;15.45;;;;;;;13.55;63.32;100774.94;5013277;28;20047;-45
2023/04/29 05:22:45;;;;;;;27.13;15.48;;;;;;;13.48;63.49;100781.63;5021437;28;21046;-44
2023/04/29 05:25:11;;;;;;;24.15;13.77;;;;;;;13.39;63.78;100778.59;5016683;28;20150;-43
2023/04/29 05:27:37;;;;;;;26.45;15.10;;;;;;;13.35;63.88;100782.44;4996101;28;20054;-43
2023/04/29 05:30:03;;;;;;;25.23;15.80;;;;;;;13.34;64.00;100785.16;5018673;28;20045;-44
2023/04/29 05:32:28;;;;;;;24.73;15.38;;;;;;;13.31;63.99;100788.88;5010951;28;20055;-44
2023/04/29 05:34:53;;;;;;;21.77;12.25;;;;;;;13.30;64.16;100789.00;5013902;28;20141;-46
2023/04/29 05:37:19;;;;;;;29.58;17.45;;;;;;;13.29;64.31;100782.00;5020010;28;20058;-43
2023/04/29 05:39:44;;;;;;;25.80;15.75;;;;;;;13.32;64.37;100789.72;5020738;28;20573;-43
2023/04/29 05:42:10;;;;;;;25.30;15.25;;;;;;;13.28;64.43;100783.78;5019662;28;20059;-44
2023/04/29 05:44:35;;;;;;;22.92;16.00;;;;;;;13.26;64.62;100791.84;5020234;28;20064;-45
2023/04/29 05:47:01;;;;;;;26.85;14.73;;;;;;;13.25;64.59;100789.28;5003566;28;20566;-44
2023/04/29 05:49:26;;;;;;;24.20;15.60;;;;;;;13.23;64.52;100796.50;5011395;28;20064;-44
2023/04/29 05:51:52;;;;;;;25.55;15.00;;;;;;;13.21;64.50;100799.22;5017140;28;20064;-42
2023/04/29 05:54:17;;;;;;;28.73;16.85;;;;;;;13.20;64.61;100791.41;5008052;28;21498;-42
2023/04/29 05:56:43;;;;;;;27.30;15.93;;;;;;;13.21;64.74;100785.19;5005452;28;20066;-44
2023/04/29 05:59:08;;;;;;;25.17;15.40;;;;;;;13.22;64.72;100789.50;5017714;28;20044;-42
2023/04/29 06:01:34;;;;;;;23.40;14.25;;;;;;;13.22;64.89;100778.94;5010476;28;20064;-43
2023/04/29 06:03:59;;;;;;;24.60;14.73;;;;;;;13.24;64.83;100787.59;5017899;28;20501;-44
2023/04/29 06:06:25;;;;;;;23.27;15.23;;;;;;;13.28;64.64;100791.72;5012729;28;20091;-45
2023/04/29 06:08:50;;;;;;;27.75;16.13;;;;;;;13.27;64.69;100787.38;5008683;28;20530;-45
2023/04/29 06:11:16;;;;;;;30.58;15.30;;;;;;;13.24;64.92;100788.44;5009030;28;20042;-45
2023/04/29 06:13:41;;;;;;;23.33;15.35;;;;;;;13.24;65.10;100788.44;5009573;28;20402;-45
2023/04/29 06:16:07;;;;;;;31.70;15.30;;;;;;;13.25;65.17;100794.56;5007676;28;20087;-44
2023/04/29 06:18:33;;;;;;;25.50;16.30;;;;;;;13.23;64.94;100799.13;5007451;28;20151;-44
2023/04/29 06:20:58;;;;;;;28.15;16.23;;;;;;;13.23;64.88;100791.22;5021081;28;20149;-44
2023/04/29 06:23:24;;;;;;;25.20;16.38;;;;;;;13.22;64.73;100792.16;5015292;28;20144;-45
2023/04/29 06:25:50;;;;;;;25.67;16.50;;;;;;;13.20;65.08;100801.97;5017757;28;20156;-44
2023/04/29 06:28:15;;;;;;;24.25;16.00;;;;;;;13.19;65.03;100797.66;5013482;28;20059;-44
2023/04/29 06:30:41;;;;;;;24.63;15.35;;;;;;;13.19;65.14;100800.28;5015112;28;20141;-44
2023/04/29 06:33:07;;;;;;;27.55;15.80;;;;;;;13.22;65.38;100805.38;5013904;28;20041;-45
2023/04/29 06:35:32;;;;;;;32.55;17.60;;;;;;;13.24;65.34;100808.72;5019715;28;20404;-44
2023/04/29 06:37:57;;;;;;;27.75;15.85;;;;;;;13.23;65.20;100801.78;5017029;28;20045;-44
2023/04/29 06:40:23;;;;;;;27.80;15.35;;;;;;;13.25;65.16;100808.63;5014585;28;20123;-44
2023/04/29 06:42:48;;;;;;;25.88;14.70;;;;;;;13.25;65.02;100813.06;5009498;28;20099;-44
2023/04/29 06:45:14;;;;;;;26.33;16.17;;;;;;;13.25;65.06;100816.56;5011836;28;20137;-44
2023/04/29 06:47:39;;;;;;;27.02;16.50;;;;;;;13.27;65.18;100824.38;5018135;28;20054;-46
2023/04/29 06:50:05;;;;;;;26.52;17.02;;;;;;;13.24;65.29;100824.59;5003018;28;20081;-45
2023/04/29 06:52:30;;;;;;;22.90;15.07;;;;;;;13.27;65.15;100830.53;5007502;28;20057;-44
2023/04/29 06:54:56;;;;;;;25.95;16.33;;;;;;;13.26;65.27;100827.97;5016535;28;20254;-45
2023/04/29 06:57:21;;;;;;;18.48;11.05;;;;;;;13.27;65.43;100829.66;5010781;28;22602;-44
2023/04/29 06:59:47;;;;;;;22.73;15.35;;;;;;;13.30;65.46;100820.69;5011128;28;20060;-44
2023/04/29 07:02:12;;;;;;;26.88;16.40;;;;;;;13.29;65.36;100833.06;5012324;28;20055;-44
2023/04/29 07:04:38;;;;;;;30.70;17.98;;;;;;;13.27;65.32;100833.16;5008646;28;20488;-47
2023/04/29 07:07:04;;;;;;;23.63;16.23;;;;;;;13.27;65.51;100840.22;5009206;28;20075;-44
2023/04/29 07:09:29;;;;;;;31.13;17.65;;;;;;;13.27;65.30;100842.88;5015768;28;20663;-44
2023/04/29 07:11:55;;;;;;;25.70;16.70;;;;;;;13.24;65.28;100846.59;4992510;28;20055;-43
2023/04/29 07:14:21;;;;;;;25.48;16.45;;;;;;;13.24;65.37;100848.38;5016181;28;20116;-44
2023/04/29 07:16:51;;;;;;;30.38;16.30;;;;;;;13.25;65.25;100847.41;5010422;28;20073;-44
2023/04/29 07:19:16;;;;;;;27.33;16.77;;;;;;;13.28;65.32;100847.22;5011582;28;20105;-43
2023/04/29 07:21:42;;;;;;;34.72;16.23;;;;;;;13.27;65.30;100856.09;5004669;28;20053;-44
2023/04/29 07:24:07;;;;;;;28.15;16.73;;;;;;;13.29;65.48;100851.56;5004998;28;20416;-43
2023/04/29 07:26:33;;;;;;;30.30;17.65;;;;;;;13.26;65.56;100860.53;5014090;28;20073;-45
2023/04/29 07:28:58;;;;;;;27.48;16.02;;;;;;;13.21;65.57;100853.88;5020873;28;20509;-45
2023/04/29 07:31:23;;;;;;;27.45;16.67;;;;;;;13.21;65.64;100867.09;5014440;28;20075;-43
2023/04/29 07:33:49;;;;;;;26.73;17.38;;;;;;;13.20;65.55;100860.94;5008653;28;20044;-43
2023/04/29 07:36:17;;;;;;;28.67;16.92;;;;;;;13.21;65.63;100870.56;5011579;28;20418;-45
2023/04/29 07:38:45;;;;;;;26.67;17.50;;;;;;;13.23;65.45;100862.56;4991991;28;20514;-45
2023/04/29 07:41:10;;;;;;;24.75;17.80;;;;;;;13.26;65.58;100859.69;5021051;28;20055;-44
2023/04/29 07:43:36;;;;;;;28.27;17.48;;;;;;;13.30;65.81;100868.28;5022498;28;20047;-46
2023/04/29 07:46:01;;;;;;;25.85;16.80;;;;;;;13.33;65.84;100875.97;5015818;28;20067;-46
2023/04/29 07:48:26;;;;;;;25.67;16.75;;;;;;;13.33;66.35;100871.53;5015758;28;20065;-44
2023/04/29 07:50:52;;;;;;;23.63;16.30;;;;;;;13.36;66.11;100874.00;5020387;28;20049;-46
2023/04/29 07:53:17;;;;;;;28.38;18.08;;;;;;;13.38;66.01;100872.09;5011797;28;20098;-45
2023/04/29 07:55:43;;;;;;;24.02;14.60;;;;;;;13.43;66.06;100876.22;5010513;28;20060;-44
2023/04/29 07:58:08;;;;;;;24.38;15.55;;;;;;;13.45;65.87;100879.63;5018346;28;20051;-48
2023/04/29 08:00:34;;;;;;;20.90;14.07;;;;;;;13.47;65.86;100885.66;5008326;28;20982;-44
2023/04/29 08:02:59;;;;;;;21.77;14.35;;;;;;;13.44;65.91;100883.22;5019105;28;20446;-45
2023/04/29 08:05:25;;;;;;;21.63;14.32;;;;;;;13.46;65.73;100883.97;5016161;28;20090;-44
2023/04/29 08:07:50;;;;;;;23.48;14.30;;;;;;;13.46;65.93;100886.59;5005035;28;20161;-46
2023/04/29 08:10:17;;;;;;;20.73;14.80;;;;;;;13.45;66.03;100893.69;5015456;28;20048;-44
2023/04/29 08:12:49;;;;;;;22.95;15.65;;;;;;;13.43;66.12;100897.38;4995938;28;21903;-44
2023/04/29 08:15:15;;;;;;;;;;;;;;;13.41;67.35;100905.41;5012516;28;20098;-46
2023/04/29 08:17:41;;;;;;;24.48;14.25;;;;;;;13.36;65.98;100908.34;5008553;28;19944;-44
2023/04/29 08:20:08;;;;;;;22.63;15.70;;;;;;;13.39;65.99;100908.13;5010117;28;20036;-46
2023/04/29 08:22:33;;;;;;;27.73;17.27;;;;;;;13.38;65.81;100905.59;5016053;28;20088;-44
2023/04/29 08:24:59;;;;;;;29.20;16.65;;;;;;;13.37;66.06;100899.47;5020369;28;20470;-45
2023/04/29 08:27:25;;;;;;;29.80;18.90;;;;;;;13.39;66.24;100909.94;5013486;28;20520;-45
2023/04/29 08:29:51;;;;;;;27.45;17.77;;;;;;;13.39;66.10;100908.13;5012576;28;20062;-45
2023/04/29 08:32:16;;;;;;;33.33;19.02;;;;;;;13.40;66.36;100914.28;5002894;28;20069;-44
2023/04/29 08:34:43;;;;;;;34.17;20.10;;;;;;;13.45;66.35;100912.19;5013651;28;20066;-48
2023/04/29 08:37:09;;;;;;;31.63;19.48;;;;;;;13.50;66.21;100925.94;5016314;28;20057;-46
2023/04/29 08:39:35;;;;;;;33.38;19.17;;;;;;;13.49;66.29;100921.59;5022581;28;21018;-45
2023/04/29 08:42:07;;;;;;;29.85;18.92;;;;;;;13.56;66.33;100919.38;5019510;28;20076;-44
2023/04/29 08:44:33;;;;;;;33.22;19.05;;;;;;;13.58;66.23;100920.13;5007507;28;20056;-46
2023/04/29 08:47:00;;;;;;;35.50;20.08;;;;;;;13.56;66.47;100935.25;5013707;28;20053;-44
2023/04/29 08:49:27;;;;;;;28.08;18.73;;;;;;;13.57;66.74;100927.22;5006244;28;20144;-46
2023/04/29 08:51:53;;;;;;;37.65;20.63;;;;;;;13.60;66.45;100927.97;5002199;28;20050;-45
2023/04/29 08:54:18;;;;;;;39.08;22.42;;;;;;;13.61;66.77;100941.09;4983588;28;20069;-46
2023/04/29 08:56:48;;;;;;;36.20;19.83;;;;;;;13.65;66.68;100947.00;5015366;28;20542;-45
2023/04/29 08:59:15;;;;;;;32.72;20.80;;;;;;;13.60;66.67;100942.03;5023430;28;20047;-46
2023/04/29 09:01:42;;;;;;;32.35;19.98;;;;;;;13.60;66.85;100949.13;5011164;28;20445;-44
2023/04/29 09:04:37;;;;;;;33.65;21.55;;;;;;;13.55;67.10;100957.34;5027465;28;20049;-45
2023/04/29 09:07:03;;;;;;;33.45;20.02;;;;;;;13.48;67.22;100961.38;5013694;28;20140;-45
2023/04/29 09:09:30;;;;;;;36.05;22.00;;;;;;;13.43;67.07;100966.09;5026698;28;20101;-45
2023/04/29 09:11:55;;;;;;;36.28;21.80;;;;;;;13.41;67.06;100959.13;5025087;28;20058;-44
2023/04/29 09:14:22;;;;;;;33.15;20.88;;;;;;;13.40;67.21;100962.69;5029592;28;20118;-44
2023/04/29 09:16:48;;;;;;;33.58;20.90;;;;;;;13.43;67.12;100969.59;5018491;28;20062;-45
2023/04/29 09:19:35;;;;;;;39.65;23.23;;;;;;;13.50;67.45;100972.69;5022043;28;20544;-44
2023/04/29 09:22:03;;;;;;;38.95;24.33;;;;;;;13.53;67.03;100968.03;5004184;28;20520;-43
2023/04/29 09:24:30;;;;;;;34.70;22.27;;;;;;;13.64;66.81;100974.38;5016792;28;20098;-44
2023/04/29 09:26:57;;;;;;;44.70;23.75;;;;;;;13.69;66.67;100977.59;5020829;28;20125;-44
2023/04/29 09:29:23;;;;;;;42.97;23.00;;;;;;;13.73;66.47;100979.09;5021953;28;20090;-44
2023/04/29 09:31:52;;;;;;;39.60;23.58;;;;;;;13.76;66.33;100983.31;5020164;28;20061;-45
2023/04/29 09:34:30;;;;;;;35.97;21.73;;;;;;;13.77;66.52;100985.84;5014394;28;20154;-45
2023/04/29 09:36:57;;;;;;;41.47;23.60;;;;;;;13.71;66.55;100987.09;5014675;28;20080;-46
2023/04/29 09:39:24;;;;;;;41.50;24.52;;;;;;;13.75;66.66;100993.06;5014504;28;20057;-45
2023/04/29 09:41:49;;;;;;;37.42;23.25;;;;;;;13.76;66.65;100985.94;5019602;28;20135;-45
2023/04/29 09:44:15;;;;;;;40.88;25.70;;;;;;;13.83;66.57;100987.25;5015223;28;20129;-44
2023/04/29 09:46:41;;;;;;;47.33;24.60;;;;;;;13.90;66.52;100993.78;5000345;28;20044;-46
2023/04/29 09:49:24;;;;;;;36.58;23.52;;;;;;;14.02;66.80;101000.91;5018690;28;20047;-44
2023/04/29 09:52:00;;;;;;;37.35;23.70;;;;;;;14.09;66.66;101005.78;5024524;28;20553;-45
2023/04/29 09:54:28;;;;;;;38.50;22.02;;;;;;;14.11;66.41;101017.09;5028019;28;20072;-45
2023/04/29 09:56:55;;;;;;;34.42;22.58;;;;;;;14.12;66.28;101021.44;5033822;28;20039;-44
2023/04/29 09:59:21;;;;;;;32.85;22.20;;;;;;;14.10;66.34;101018.06;5028308;28;20110;-45
2023/04/29 10:01:49;;;;;;;33.28;20.27;;;;;;;14.06;66.10;101033.31;5019570;28;20049;-44
2023/04/29 10:04:15;;;;;;;35.50;22.02;;;;;;;14.00;66.29;101031.06;5023784;28;20525;-44
2023/04/29 10:06:42;;;;;;;31.70;20.90;;;;;;;13.99;66.17;101032.00;5018351;28;20055;-44
2023/04/29 10:09:14;;;;;;;33.28;21.92;;;;;;;13.93;66.33;101033.28;5027947;28;20069;-43
2023/04/29 10:11:41;;;;;;;36.63;22.65;;;;;;;13.93;66.31;101041.22;5030853;28;20044;-43
2023/04/29 10:14:11;;;;;;;24.13;14.57;;;;;;;13.94;66.22;101045.56;5028068;28;20051;-43
2023/04/29 10:16:44;;;;;;;34.65;21.85;;;;;;;13.96;65.85;101042.78;5028209;28;20100;-43
2023/04/29 10:19:14;;;;;;;33.75;22.13;;;;;;;13.95;66.23;101046.38;5032354;28;20049;-44
2023/04/29 10:21:40;;;;;;;33.05;21.38;;;;;;;13.90;66.22;101044.06;5031025;28;20044;-45
2023/04/29 10:24:07;;;;;;;39.28;22.75;;;;;;;13.93;66.36;101043.00;5031738;28;20043;-45
2023/04/29 10:26:33;;;;;;;37.17;23.55;;;;;;;13.93;66.34;101054.44;5022109;28;20512;-45
2023/04/29 10:28:59;;;;;;;40.53;25.42;;;;;;;13.94;66.32;101048.19;5027848;28;20068;-45
2023/04/29 10:31:26;;;;;;;38.03;24.63;;;;;;;13.92;66.15;101047.44;5027670;28;20045;-46
2023/04/29 10:33:55;;;;;;;39.95;23.75;;;;;;;13.94;66.21;101042.03;5025044;28;20037;-44
2023/04/29 10:36:22;;;;;;;67.45;35.22;;;;;;;13.96;66.02;101048.94;5027156;28;20067;-44
2023/04/29 10:38:52;;;;;;;44.25;26.15;;;;;;;13.98;65.84;101052.34;5019427;28;20034;-45
2023/04/29 10:41:24;;;;;;;42.92;27.50;;;;;;;13.96;65.64;101048.94;5019862;28;20079;-44
2023/04/29 10:43:51;;;;;;;43.35;26.30;;;;;;;13.94;65.29;101056.13;5021441;28;20054;-46
2023/04/29 10:46:19;;;;;;;45.05;26.45;;;;;;;13.87;65.67;101050.41;5021005;28;20148;-45
2023/04/29 10:48:45;;;;;;;43.22;26.42;;;;;;;13.88;65.74;101059.19;5007881;28;20064;-45
2023/04/29 10:51:11;;;;;;;44.72;26.83;;;;;;;13.87;65.57;101061.00;5013657;28;20049;-44
2023/04/29 10:53:57;;;;;;;39.72;24.33;;;;;;;14.01;65.42;101059.22;5000435;28;20057;-44
2023/04/29 11:04:09;;;;;;;30.75;20.55;;;;;;;14.39;64.43;101066.31;5090320;22;20088;-42
2023/04/29 11:06:35;;;;;;;31.45;20.67;;;;;;;14.47;64.27;101057.84;5069791;28;20051;-42
2023/04/29 11:09:01;;;;;;;33.92;20.40;;;;;;;14.53;64.35;101065.38;5069496;28;20412;-43
2023/04/29 11:11:42;;;;;;;33.58;20.08;;;;;;;14.61;64.20;101064.84;5069523;28;20045;-47
2023/04/29 11:14:10;;;;;;;29.85;18.60;;;;;;;14.57;64.08;101074.81;5076821;28;20064;-43
2023/04/29 11:16:38;;;;;;;27.08;16.90;;;;;;;14.52;63.96;101074.28;5075226;28;20129;-44